createdAt,value
2017-08-20T07:49:19.523Z,81.87
2017-08-20T07:51:21.918Z,81.68
2017-08-20T07:53:23.761Z,80.91
2017-08-20T07:55:25.455Z,82.26
2017-08-20T07:57:27.201Z,81.59
2017-08-20T07:59:28.860Z,80.15
2017-08-20T08:01:30.717Z,80.82
2017-08-20T08:03:32.594Z,81.01
2017-08-20T08:05:34.379Z,81.10
2017-08-20T08:08:16.469Z,79.96
2017-08-20T08:10:17.926Z,81.40
2017-08-20T08:12:19.804Z,79.19
2017-08-20T08:14:22.150Z,79.22
2017-08-20T08:16:23.742Z,79.90
2017-08-20T08:18:25.264Z,79.61
2017-08-20T08:20:27.162Z,77.78
2017-08-20T08:22:29.037Z,77.40
2017-08-20T08:24:30.824Z,76.39
2017-08-20T08:26:32.682Z,77.25
2017-08-20T08:28:34.524Z,75.90
2017-08-20T08:30:36.363Z,75.71
2017-08-20T08:32:38.176Z,74.46
2017-08-20T08:34:40.086Z,75.84
2017-08-20T08:36:41.734Z,74.88
2017-08-20T08:38:43.278Z,74.60
2017-08-20T08:40:44.893Z,74.11
2017-08-20T08:42:46.513Z,74.69
2017-08-20T08:44:48.051Z,74.79
2017-08-20T08:46:49.627Z,73.83
2017-08-20T08:48:51.150Z,73.15
2017-08-20T08:50:52.730Z,72.77
2017-08-20T08:52:54.383Z,75.07
2017-08-20T08:54:56.009Z,74.92
2017-08-20T08:56:57.570Z,75.79
2017-08-20T08:58:59.109Z,72.17
2017-08-20T09:01:00.635Z,71.59
2017-08-20T09:03:43.990Z,71.78
2017-08-20T09:05:45.722Z,72.26
2017-08-20T09:07:47.113Z,69.85
2017-08-20T09:09:48.934Z,70.62
2017-08-20T09:11:50.796Z,71.08
2017-08-20T09:13:52.517Z,70.78
2017-08-20T09:15:54.527Z,71.23
2017-08-20T09:17:56.074Z,71.52
2017-08-20T09:19:57.653Z,71.42
2017-08-20T09:21:59.236Z,72.77
2017-08-20T09:24:00.789Z,73.44
2017-08-20T09:26:02.690Z,71.91
2017-08-20T09:28:04.409Z,72.19
2017-08-20T09:30:06.783Z,72.42
2017-08-20T09:32:08.565Z,72.90
2017-08-20T09:34:10.345Z,72.80
2017-08-20T09:36:12.182Z,71.49
2017-08-20T09:38:13.992Z,70.15
2017-08-20T09:40:15.750Z,71.08
2017-08-20T09:42:17.618Z,71.01
2017-08-20T09:44:19.507Z,70.15
2017-08-20T09:46:21.342Z,70.98
2017-08-20T09:48:23.292Z,70.11
2017-08-20T09:51:05.989Z,69.06
2017-08-20T09:53:07.716Z,69.09
2017-08-20T09:55:10.131Z,68.41
2017-08-20T09:57:11.946Z,67.97
2017-08-20T09:59:13.496Z,69.51
2017-08-20T10:01:15.257Z,68.00
2017-08-20T10:03:17.031Z,64.98
2017-08-20T10:05:18.874Z,66.42
2017-08-20T10:07:20.685Z,65.46
2017-08-20T10:09:22.459Z,64.89
2017-08-20T10:11:24.359Z,66.68
2017-08-20T10:13:26.148Z,67.83
2017-08-20T10:15:28.013Z,65.85
2017-08-20T10:17:29.599Z,65.46
2017-08-20T10:19:31.564Z,66.14
2017-08-20T10:21:33.407Z,65.46
2017-08-20T10:23:35.233Z,65.08
2017-08-20T10:25:37.132Z,64.40
2017-08-20T10:27:38.969Z,63.92
2017-08-20T10:29:41.160Z,66.07
2017-08-20T10:31:43.011Z,62.09
2017-08-20T10:33:45.104Z,65.11
2017-08-20T10:35:46.898Z,64.28
2017-08-20T10:37:48.728Z,62.45
2017-08-20T10:39:50.484Z,62.73
2017-08-20T10:41:52.273Z,63.41
2017-08-20T10:43:54.998Z,63.21
2017-08-20T10:45:56.727Z,64.34
2017-08-20T10:48:43.014Z,61.93
2017-08-20T10:50:44.822Z,64.34
2017-08-20T10:52:46.709Z,62.00
2017-08-20T10:54:48.280Z,64.59
2017-08-20T10:56:49.887Z,65.94
2017-08-20T10:58:51.725Z,62.12
2017-08-20T11:00:53.685Z,61.48
2017-08-20T11:02:55.589Z,60.52
2017-08-20T11:05:38.182Z,61.77
2017-08-20T11:07:40.243Z,61.38
2017-08-20T11:09:41.789Z,62.48
2017-08-20T11:11:43.906Z,61.06
2017-08-20T11:13:45.405Z,62.31
2017-08-20T11:15:47.044Z,56.72
2017-08-20T11:17:48.576Z,59.39
2017-08-20T11:19:50.186Z,59.97
2017-08-20T11:21:51.860Z,59.97
2017-08-20T11:23:53.701Z,60.06
2017-08-20T11:25:55.459Z,60.35
2017-08-20T11:27:57.326Z,61.35
2017-08-20T11:29:59.154Z,58.81
2017-08-20T11:32:00.959Z,59.20
2017-08-20T11:34:02.995Z,59.48
2017-08-20T11:36:46.368Z,58.72
2017-08-20T11:38:48.413Z,59.30
2017-08-20T11:40:49.998Z,60.45
2017-08-20T11:42:51.567Z,62.48
2017-08-20T11:44:53.430Z,58.62
2017-08-20T11:46:55.729Z,58.59
2017-08-20T11:48:57.641Z,61.00
2017-08-20T11:50:59.570Z,59.94
2017-08-20T11:53:01.211Z,60.03
2017-08-20T11:55:02.976Z,61.96
2017-08-20T11:57:04.862Z,62.35
2017-08-20T11:59:06.718Z,60.61
2017-08-20T12:01:08.504Z,59.84
2017-08-20T12:03:10.389Z,61.16
2017-08-20T12:05:12.645Z,60.97
2017-08-20T12:07:14.611Z,61.16
2017-08-20T12:09:16.556Z,61.74
2017-08-20T12:11:18.399Z,63.47
2017-08-20T12:14:01.101Z,64.21
2017-08-20T12:16:02.854Z,64.69
2017-08-20T12:18:04.308Z,65.37
2017-08-20T12:20:05.790Z,65.46
2017-08-20T12:22:07.444Z,64.40
2017-08-20T12:24:08.898Z,62.09
2017-08-20T12:26:51.362Z,62.96
2017-08-20T12:28:52.817Z,63.25
2017-08-20T12:30:54.360Z,64.12
2017-08-20T12:32:55.877Z,62.19
2017-08-20T12:34:58.117Z,61.32
2017-08-20T12:37:00.237Z,62.64
2017-08-20T12:39:43.719Z,62.16
2017-08-20T12:41:45.823Z,62.16
2017-08-20T12:43:47.404Z,62.57
2017-08-20T12:45:48.930Z,63.64
2017-08-20T12:47:50.504Z,64.21
2017-08-20T12:49:52.845Z,63.92
2017-08-20T12:51:54.505Z,64.76
2017-08-20T12:53:56.484Z,65.43
2017-08-20T12:55:58.378Z,66.30
2017-08-20T12:58:00.390Z,67.51
2017-08-20T13:00:02.337Z,68.32
2017-08-20T13:02:04.299Z,67.07
2017-08-20T13:04:06.421Z,67.65
2017-08-20T13:06:07.964Z,67.19
2017-08-20T13:08:09.483Z,66.04
2017-08-20T13:10:12.077Z,66.14
2017-08-20T13:12:13.944Z,67.77
2017-08-20T13:14:15.494Z,67.19
2017-08-20T13:16:17.011Z,67.87
2017-08-20T13:18:18.553Z,66.36
2017-08-20T13:21:00.995Z,65.69
2017-08-20T13:23:02.614Z,66.65
2017-08-20T13:25:04.012Z,65.01
2017-08-20T13:27:05.438Z,65.27
2017-08-20T13:29:06.870Z,68.35
2017-08-20T13:31:08.309Z,69.70
2017-08-20T13:33:09.771Z,69.31
2017-08-20T13:35:11.276Z,66.14
2017-08-20T13:37:12.807Z,66.24
2017-08-20T13:39:55.221Z,66.52
2017-08-20T13:41:56.920Z,66.33
2017-08-20T13:43:58.357Z,67.00
2017-08-20T13:45:59.838Z,67.97
2017-08-20T13:48:01.561Z,66.07
2017-08-20T13:50:03.126Z,67.81
2017-08-20T13:52:04.678Z,67.42
2017-08-20T13:54:06.172Z,71.66
2017-08-20T13:56:07.799Z,74.16
2017-08-20T13:58:50.201Z,71.72
2017-08-20T14:00:51.661Z,73.03
2017-08-20T14:02:53.083Z,75.15
2017-08-20T14:04:55.302Z,77.51
2017-08-20T14:06:56.695Z,78.83
2017-08-20T14:08:58.129Z,81.67
2017-08-20T14:11:39.991Z,82.34
2017-08-20T14:13:42.204Z,81.81
2017-08-20T14:15:43.785Z,81.42
2017-08-20T14:17:45.179Z,81.13
2017-08-20T14:19:46.601Z,80.07
2017-08-20T14:21:48.111Z,81.90
2017-08-20T14:23:49.535Z,81.04
2017-08-20T14:25:51.048Z,81.71
2017-08-20T14:28:34.254Z,82.96
2017-08-20T14:31:18.023Z,83.44
2017-08-20T14:33:20.663Z,83.34
2017-08-20T14:35:22.569Z,84.30
2017-08-20T14:37:24.018Z,83.15
2017-08-20T14:39:25.668Z,85.17
2017-08-20T14:41:27.253Z,84.34
2017-08-20T14:43:29.256Z,84.63
2017-08-20T14:46:11.672Z,82.71
2017-08-20T14:48:13.097Z,81.56
2017-08-20T14:50:16.339Z,83.48
2017-08-20T14:52:17.860Z,81.46
2017-08-20T14:54:19.380Z,81.84
2017-08-20T14:56:20.961Z,81.81
2017-08-20T14:58:22.514Z,79.30
2017-08-20T15:00:24.370Z,80.94
2017-08-20T15:02:25.981Z,82.86
2017-08-20T15:05:08.462Z,83.15
2017-08-20T15:07:10.871Z,81.71
2017-08-20T15:09:12.423Z,81.13
2017-08-20T15:11:13.924Z,80.36
2017-08-20T15:13:15.777Z,79.69
2017-08-20T15:15:17.623Z,81.90
2017-08-20T15:17:19.160Z,81.99
2017-08-20T15:19:20.785Z,81.81
2017-08-20T15:21:22.508Z,78.25
2017-08-20T15:23:24.097Z,77.58
2017-08-20T15:25:25.633Z,79.11
2017-08-20T15:28:07.322Z,78.25
2017-08-20T15:30:08.818Z,79.69
2017-08-20T15:32:10.939Z,77.83
2017-08-20T15:34:12.369Z,79.21
2017-08-20T15:36:13.802Z,78.83
2017-08-20T15:38:15.359Z,79.30
2017-08-20T15:40:17.096Z,80.94
2017-08-20T15:42:18.633Z,76.04
2017-08-20T15:45:00.668Z,77.96
2017-08-20T15:47:02.473Z,74.88
2017-08-20T15:49:04.079Z,78.53
2017-08-20T15:51:06.101Z,76.90
2017-08-20T15:53:07.792Z,79.73
2017-08-20T15:55:09.712Z,79.63
2017-08-20T15:57:11.739Z,78.86
2017-08-20T15:59:54.076Z,80.40
2017-08-20T16:01:55.499Z,77.33
2017-08-20T16:03:56.930Z,77.13
2017-08-20T16:05:58.361Z,75.69
2017-08-20T16:07:59.793Z,76.56
2017-08-20T16:10:01.294Z,75.79
2017-08-20T16:12:02.764Z,76.65
2017-08-20T16:14:04.989Z,77.13
2017-08-20T16:16:49.499Z,77.42
2017-08-20T16:18:52.106Z,76.31
2017-08-20T16:20:53.777Z,75.49
2017-08-20T16:22:55.476Z,75.98
2017-08-20T16:24:58.099Z,77.04
2017-08-20T16:27:00.074Z,77.13
2017-08-20T16:29:44.862Z,75.88
2017-08-20T16:31:46.592Z,76.56
2017-08-20T16:33:48.717Z,74.34
2017-08-20T16:35:50.283Z,74.34
2017-08-20T16:37:51.962Z,74.73
2017-08-20T16:39:53.521Z,73.96
2017-08-20T16:41:55.029Z,76.17
2017-08-20T16:43:56.528Z,77.04
2017-08-20T16:45:58.205Z,75.40
2017-08-20T16:48:00.069Z,70.21
2017-08-20T16:50:01.585Z,72.03
2017-08-20T16:52:03.102Z,74.34
2017-08-20T16:54:04.626Z,75.21
2017-08-20T16:56:06.214Z,72.71
2017-08-20T16:58:07.744Z,73.96
2017-08-20T17:00:09.289Z,69.40
2017-08-20T17:02:10.823Z,70.37
2017-08-20T17:04:12.315Z,71.52
2017-08-20T17:06:13.833Z,70.46
2017-08-20T17:08:15.391Z,70.27
2017-08-20T17:10:16.934Z,71.61
2017-08-20T17:12:18.561Z,70.56
2017-08-20T17:14:20.145Z,71.04
2017-08-20T17:16:21.652Z,70.37
2017-08-20T17:18:23.189Z,71.81
2017-08-20T17:20:24.685Z,72.61
2017-08-20T17:22:26.203Z,72.42
2017-08-20T17:24:27.709Z,71.65
2017-08-20T17:26:29.252Z,73.38
2017-08-20T17:28:30.756Z,72.90
2017-08-20T17:30:32.263Z,71.65
2017-08-20T17:32:33.798Z,71.23
2017-08-20T17:34:35.962Z,70.50
2017-08-20T17:36:37.479Z,70.46
2017-08-20T17:38:39.015Z,71.14
2017-08-20T17:40:40.547Z,72.48
2017-08-20T17:42:42.192Z,72.86
2017-08-20T17:44:43.708Z,71.61
2017-08-20T17:46:45.268Z,72.58
2017-08-20T17:48:46.817Z,70.65
2017-08-20T17:50:48.318Z,73.06
2017-08-20T17:52:49.834Z,73.25
2017-08-20T17:54:51.355Z,73.25
2017-08-20T17:56:52.861Z,73.73
2017-08-20T17:58:54.360Z,71.71
2017-08-20T18:00:56.026Z,72.09
2017-08-20T18:02:57.569Z,71.52
2017-08-20T18:04:59.067Z,72.38
2017-08-20T18:07:00.581Z,73.06
2017-08-20T18:09:02.144Z,72.96
2017-08-20T18:11:03.578Z,72.96
2017-08-20T18:13:05.006Z,73.83
2017-08-20T18:15:06.524Z,73.06
2017-08-20T18:17:07.969Z,72.58
2017-08-20T18:19:09.526Z,73.44
2017-08-20T18:21:11.138Z,72.19
2017-08-20T18:23:12.666Z,73.15
2017-08-20T18:25:14.232Z,72.86
2017-08-20T18:27:15.752Z,73.98
2017-08-20T18:29:17.295Z,73.69
2017-08-20T18:31:18.781Z,74.27
2017-08-20T18:33:20.301Z,74.17
2017-08-20T18:35:21.853Z,73.60
2017-08-20T18:37:23.360Z,73.88
2017-08-20T18:39:24.910Z,73.79
2017-08-20T18:41:26.445Z,73.88
2017-08-20T18:43:27.988Z,74.27
2017-08-20T18:45:29.424Z,73.11
2017-08-20T18:47:31.048Z,72.83
2017-08-20T18:49:32.560Z,74.85
2017-08-20T18:51:34.063Z,73.69
2017-08-20T18:53:35.636Z,73.79
2017-08-20T18:55:37.135Z,74.08
2017-08-20T18:57:38.685Z,74.46
2017-08-20T18:59:40.244Z,73.98
2017-08-20T19:01:41.770Z,75.52
2017-08-20T19:03:43.300Z,75.13
2017-08-20T19:05:44.809Z,75.13
2017-08-20T19:07:46.321Z,74.85
2017-08-20T19:09:47.858Z,74.08
2017-08-20T19:11:49.402Z,74.33
2017-08-20T19:13:50.936Z,74.62
2017-08-20T19:15:52.466Z,74.71
2017-08-20T19:17:53.978Z,74.23
2017-08-20T19:19:55.486Z,74.23
2017-08-20T19:21:57.054Z,74.04
2017-08-20T19:23:58.558Z,75.10
2017-08-20T19:26:00.054Z,75.38
2017-08-20T19:28:01.600Z,73.56
2017-08-20T19:30:03.154Z,73.85
2017-08-20T19:32:04.640Z,72.89
2017-08-20T19:34:06.135Z,73.27
2017-08-20T19:36:07.662Z,72.02
2017-08-20T19:38:09.261Z,72.02
2017-08-20T19:40:10.767Z,71.73
2017-08-20T19:42:12.292Z,71.64
2017-08-20T19:44:13.782Z,72.12
2017-08-20T19:46:15.377Z,72.47
2017-08-20T19:48:16.940Z,72.69
2017-08-20T19:50:18.478Z,72.41
2017-08-20T19:52:20.048Z,72.69
2017-08-20T19:54:21.630Z,72.37
2017-08-20T19:56:23.150Z,73.72
2017-08-20T19:58:24.737Z,73.81
2017-08-20T20:00:26.281Z,73.33
2017-08-20T20:02:27.852Z,73.24
2017-08-20T20:04:29.409Z,73.14
2017-08-20T20:06:30.924Z,73.81
2017-08-20T20:08:32.423Z,73.72
2017-08-20T20:10:33.939Z,74.29
2017-08-20T20:12:35.471Z,73.91
2017-08-20T20:14:37.026Z,73.14
2017-08-20T20:16:38.580Z,74.01
2017-08-20T20:18:40.101Z,73.81
2017-08-20T20:20:41.662Z,73.58
2017-08-20T20:22:43.159Z,74.26
2017-08-20T20:24:44.668Z,73.62
2017-08-20T20:26:46.191Z,73.58
2017-08-20T20:28:47.735Z,73.97
2017-08-20T20:30:49.354Z,73.68
2017-08-20T20:32:50.851Z,72.63
2017-08-20T20:34:52.359Z,73.20
2017-08-20T20:36:53.925Z,73.00
2017-08-20T20:38:55.455Z,73.04
2017-08-20T20:40:56.972Z,72.75
2017-08-20T20:42:58.524Z,72.56
2017-08-20T20:45:00.009Z,72.91
2017-08-20T20:47:01.442Z,73.24
2017-08-20T20:49:02.967Z,73.33
2017-08-20T20:51:04.460Z,73.52
2017-08-20T20:53:06.010Z,72.81
2017-08-20T20:55:07.462Z,73.58
2017-08-20T20:57:09.013Z,73.39
2017-08-20T20:59:10.538Z,74.16
2017-08-20T21:01:12.216Z,74.64
2017-08-20T21:03:13.717Z,74.54
2017-08-20T21:05:15.239Z,74.83
2017-08-20T21:07:16.724Z,75.79
2017-08-20T21:09:18.228Z,74.89
2017-08-20T21:11:19.661Z,75.70
2017-08-20T21:13:21.239Z,75.60
2017-08-20T21:15:22.952Z,75.02
2017-08-20T21:17:24.560Z,74.73
2017-08-20T21:19:26.062Z,74.73
2017-08-20T21:21:27.691Z,74.54
2017-08-20T21:23:36.644Z,75.08
2017-08-20T21:25:38.041Z,74.89
2017-08-20T21:27:39.541Z,75.12
2017-08-20T21:29:41.075Z,74.69
2017-08-20T21:31:42.532Z,74.12
2017-08-20T21:33:47.737Z,75.37
2017-08-20T21:35:52.076Z,75.18
2017-08-20T21:37:53.390Z,75.27
2017-08-20T21:39:54.824Z,75.08
2017-08-20T21:41:56.243Z,74.89
2017-08-20T21:43:57.737Z,75.85
2017-08-20T21:45:59.185Z,75.65
2017-08-20T21:48:00.648Z,75.27
2017-08-20T21:50:02.135Z,75.27
2017-08-20T21:52:03.562Z,75.37
2017-08-20T21:54:04.982Z,75.46
2017-08-20T21:56:06.403Z,75.18
2017-08-20T21:58:07.831Z,75.65
2017-08-20T22:00:09.280Z,74.98
2017-08-20T22:02:17.292Z,74.02
2017-08-20T22:04:59.684Z,74.89
2017-08-20T22:07:01.113Z,75.23
2017-08-20T22:09:10.503Z,75.23
2017-08-20T22:11:12.053Z,75.62
2017-08-20T22:13:18.549Z,75.71
2017-08-20T22:15:19.850Z,76.29
2017-08-20T22:17:21.352Z,75.81
2017-08-20T22:19:23.038Z,75.81
2017-08-20T22:21:24.621Z,76.57
2017-08-20T22:23:26.238Z,76.82
2017-08-20T22:25:27.869Z,76.73
2017-08-20T22:27:29.358Z,77.31
2017-08-20T22:30:12.055Z,77.69
2017-08-20T22:32:13.480Z,77.69
2017-08-20T22:34:14.902Z,77.11
2017-08-20T22:36:16.342Z,78.07
2017-08-20T22:38:17.743Z,77.34
2017-08-20T22:40:19.165Z,76.86
2017-08-20T22:42:27.622Z,76.29
2017-08-20T22:44:33.600Z,76.57
2017-08-20T22:46:34.861Z,76.44
2017-08-20T22:48:36.311Z,77.21
2017-08-20T22:50:37.813Z,77.50
2017-08-20T22:52:39.352Z,77.78
2017-08-20T22:54:47.189Z,77.97
2017-08-20T22:56:48.630Z,78.17
2017-08-20T22:58:50.163Z,77.59
2017-08-20T23:00:51.650Z,77.50
2017-08-20T23:02:53.332Z,78.27
2017-08-20T23:04:55.099Z,78.17
2017-08-20T23:07:00.809Z,78.03
2017-08-20T23:09:43.116Z,78.51
2017-08-20T23:11:45.380Z,78.51
2017-08-20T23:13:46.806Z,78.70
2017-08-20T23:15:48.298Z,78.61
2017-08-20T23:17:49.805Z,78.03
2017-08-20T23:19:51.464Z,77.69
2017-08-20T23:21:53.159Z,78.27
2017-08-20T23:23:54.711Z,77.69
2017-08-20T23:26:36.696Z,77.31
2017-08-20T23:28:38.108Z,76.64
2017-08-20T23:30:39.530Z,76.82
2017-08-20T23:32:40.957Z,77.11
2017-08-20T23:34:42.885Z,76.44
2017-08-20T23:36:44.322Z,77.50
2017-08-20T23:38:50.050Z,77.02
2017-08-20T23:40:51.564Z,77.21
2017-08-20T23:42:53.139Z,77.50
2017-08-20T23:44:54.823Z,75.77
2017-08-20T23:46:56.315Z,76.35
2017-08-20T23:48:57.911Z,77.02
2017-08-20T23:50:59.428Z,75.77
2017-08-20T23:53:00.996Z,76.25
2017-08-20T23:55:02.530Z,75.96
2017-08-20T23:57:52.088Z,76.15
2017-08-20T23:59:53.490Z,75.77
